createdAt,value
2019-04-27T00:04:35.749Z,16.80
2019-04-27T00:09:43.159Z,16.80
2019-04-27T00:14:39.406Z,16.80
2019-04-27T00:19:57.195Z,16.80
2019-04-27T00:24:56.923Z,16.80
2019-04-27T00:29:56.652Z,16.70
2019-04-27T00:34:57.449Z,16.70
2019-04-27T00:40:19.006Z,16.70
2019-04-27T00:45:19.054Z,16.70
2019-04-27T00:50:18.835Z,16.70
2019-04-27T00:55:18.498Z,16.60
2019-04-27T01:00:39.030Z,16.60
2019-04-27T01:05:38.917Z,16.60
2019-04-27T01:10:38.558Z,16.50
2019-04-27T01:15:38.214Z,16.40
2019-04-27T01:20:38.814Z,16.40
2019-04-27T01:25:51.033Z,16.40
2019-04-27T01:31:00.651Z,16.30
2019-04-27T01:36:00.603Z,16.20
2019-04-27T01:41:00.659Z,16.20
2019-04-27T01:46:01.628Z,16.20
2019-04-27T01:51:02.746Z,16.20
2019-04-27T01:56:02.470Z,16.20
2019-04-27T02:01:19.846Z,16.10
2019-04-27T02:06:20.913Z,16.10
2019-04-27T02:11:20.710Z,16.10
2019-04-27T02:16:20.498Z,16.00
2019-04-27T02:21:20.911Z,16.00
2019-04-27T02:26:21.599Z,16.00
2019-04-27T02:31:35.873Z,16.10
2019-04-27T02:36:35.586Z,16.00
2019-04-27T02:41:35.251Z,16.00
2019-04-27T02:46:35.047Z,16.10
2019-04-27T02:51:59.470Z,16.00
2019-04-27T02:56:59.453Z,16.00
2019-04-27T03:02:07.436Z,16.00
2019-04-27T03:07:08.150Z,16.00
2019-04-27T03:12:10.231Z,15.90
2019-04-27T03:17:22.728Z,15.90
2019-04-27T03:22:29.606Z,15.90
2019-04-27T03:27:31.258Z,15.90
2019-04-27T03:32:31.795Z,15.80
2019-04-27T03:37:31.818Z,15.80
2019-04-27T03:42:32.616Z,15.80
2019-04-27T03:47:32.423Z,15.80
2019-04-27T03:52:46.879Z,15.80
2019-04-27T03:57:52.551Z,15.70
2019-04-27T04:02:52.346Z,15.60
2019-04-27T04:07:52.320Z,15.60
2019-04-27T04:13:01.335Z,15.50
2019-04-27T04:18:01.301Z,15.50
2019-04-27T04:23:03.355Z,15.40
2019-04-27T04:28:02.414Z,15.40
2019-04-27T04:33:02.079Z,15.40
2019-04-27T04:38:01.807Z,15.40
2019-04-27T04:43:10.815Z,15.30
2019-04-27T04:48:13.270Z,15.30
2019-04-27T04:53:13.053Z,15.20
2019-04-27T04:58:12.755Z,15.20
2019-04-27T05:03:12.706Z,15.20
2019-04-27T05:08:12.342Z,15.10
2019-04-27T05:13:12.090Z,15.10
2019-04-27T05:18:12.371Z,15.10
2019-04-27T05:23:12.014Z,15.00
2019-04-27T05:28:11.660Z,15.00
2019-04-27T05:33:11.652Z,15.00
2019-04-27T05:38:13.567Z,15.10
2019-04-27T05:43:14.445Z,15.10
2019-04-27T05:48:27.465Z,15.20
2019-04-27T05:53:20.015Z,15.20
2019-04-27T05:58:19.686Z,15.30
2019-04-27T06:03:21.021Z,15.30
2019-04-27T06:08:21.158Z,15.30
2019-04-27T06:13:20.886Z,15.40
2019-04-27T06:18:20.903Z,15.40
2019-04-27T06:23:21.029Z,15.50
2019-04-27T06:28:21.184Z,15.60
2019-04-27T06:33:29.579Z,15.70
2019-04-27T06:38:22.202Z,15.80
2019-04-27T06:43:22.074Z,15.90
2019-04-27T06:48:21.775Z,16.00
2019-04-27T06:53:21.426Z,16.10
2019-04-27T06:58:21.086Z,16.20
2019-04-27T07:03:20.734Z,16.20
2019-04-27T07:08:20.428Z,16.30
2019-04-27T07:13:20.446Z,16.40
2019-04-27T07:18:20.149Z,16.50
2019-04-27T07:23:20.997Z,16.60
2019-04-27T07:28:21.166Z,16.80
2019-04-27T07:33:20.823Z,16.90
2019-04-27T07:38:20.579Z,17.00
2019-04-27T07:43:32.209Z,17.10
2019-04-27T07:48:31.867Z,17.30
2019-04-27T07:53:32.613Z,17.40
2019-04-27T07:58:32.835Z,17.50
2019-04-27T08:03:33.627Z,17.60
2019-04-27T08:08:33.278Z,17.70
2019-04-27T08:13:33.551Z,17.80
2019-04-27T08:18:34.294Z,17.90
2019-04-27T08:23:33.958Z,18.00
2019-04-27T08:28:40.403Z,18.10
2019-04-27T08:33:40.030Z,18.30
2019-04-27T08:38:39.694Z,18.50
2019-04-27T08:43:39.642Z,18.70
2019-04-27T08:48:39.497Z,18.90
2019-04-27T08:53:39.759Z,19.00
2019-04-27T08:58:39.643Z,19.20
2019-04-27T09:03:39.540Z,19.30
2019-04-27T09:08:45.410Z,19.50
2019-04-27T09:13:59.833Z,19.60
2019-04-27T09:19:04.966Z,19.80
2019-04-27T09:24:04.702Z,20.00
2019-04-27T09:29:04.566Z,20.20
2019-04-27T09:34:05.625Z,20.40
2019-04-27T09:39:09.590Z,20.50
2019-04-27T09:44:09.539Z,20.70
2019-04-27T09:49:12.011Z,20.80
2019-04-27T09:54:10.615Z,21.00
2019-04-27T09:59:10.543Z,21.20
2019-04-27T10:04:10.262Z,21.30
2019-04-27T10:09:09.994Z,21.30
2019-04-27T10:14:09.659Z,21.40
2019-04-27T10:19:09.655Z,21.60
2019-04-27T10:24:09.279Z,21.70
2019-04-27T10:29:09.219Z,21.90
2019-04-27T10:34:09.146Z,22.10
2019-04-27T10:39:13.534Z,22.30
2019-04-27T10:44:13.714Z,22.50
2019-04-27T10:49:13.541Z,22.50
2019-04-27T10:54:13.371Z,22.50
2019-04-27T10:59:13.038Z,22.50
2019-04-27T11:04:26.054Z,22.50
2019-04-27T11:09:25.871Z,22.60
2019-04-27T11:14:26.179Z,22.60
2019-04-27T11:19:26.754Z,22.70
2019-04-27T11:24:26.808Z,22.80
2019-04-27T11:29:27.736Z,23.00
2019-04-27T11:34:46.009Z,23.10
2019-04-27T11:39:46.046Z,23.30
2019-04-27T11:44:47.066Z,23.40
2019-04-27T11:49:46.742Z,23.40
2019-04-27T11:54:46.374Z,23.40
2019-04-27T11:59:46.030Z,23.30
2019-04-27T12:04:46.729Z,23.30
2019-04-27T12:09:48.033Z,23.20
2019-04-27T12:14:48.451Z,23.30
2019-04-27T12:19:48.090Z,23.30
2019-04-27T12:24:48.002Z,23.40
2019-04-27T12:30:06.336Z,23.50
2019-04-27T12:35:06.742Z,23.50
2019-04-27T12:40:06.839Z,23.50
2019-04-27T12:45:07.235Z,23.40
2019-04-27T12:50:08.794Z,23.40
2019-04-27T12:55:18.723Z,23.40
2019-04-27T13:00:21.798Z,23.50
2019-04-27T13:05:21.435Z,23.70
2019-04-27T13:10:21.415Z,23.90
2019-04-27T13:15:21.139Z,24.10
2019-04-27T13:20:23.251Z,24.20
2019-04-27T13:25:36.814Z,24.20
2019-04-27T13:30:36.863Z,24.10
2019-04-27T13:35:36.904Z,24.00
2019-04-27T13:40:38.274Z,23.90
2019-04-27T13:46:03.370Z,23.70
2019-04-27T13:51:06.596Z,23.50
2019-04-27T13:56:17.128Z,23.20
2019-04-27T14:01:16.595Z,22.90
2019-04-27T14:06:16.370Z,22.70
2019-04-27T14:11:16.038Z,22.60
2019-04-27T14:16:15.731Z,22.50
2019-04-27T14:21:15.675Z,22.50
2019-04-27T14:26:15.403Z,22.50
2019-04-27T14:31:15.341Z,22.60
2019-04-27T14:36:16.156Z,22.70
2019-04-27T14:41:16.466Z,22.70
2019-04-27T14:46:16.378Z,22.60
2019-04-27T14:51:16.406Z,22.50
2019-04-27T14:56:18.102Z,22.50
2019-04-27T15:01:18.807Z,22.40
2019-04-27T15:06:19.804Z,22.30
2019-04-27T15:11:19.914Z,22.30
2019-04-27T15:16:19.621Z,22.20
2019-04-27T15:21:20.774Z,22.20
2019-04-27T15:26:22.939Z,22.10
2019-04-27T15:31:27.172Z,22.00
2019-04-27T15:36:52.772Z,22.00
2019-04-27T15:41:55.554Z,21.90
2019-04-27T15:46:55.306Z,21.90
2019-04-27T15:51:56.108Z,21.90
2019-04-27T15:56:58.066Z,21.80
2019-04-27T16:01:57.894Z,21.80
2019-04-27T16:06:58.245Z,21.70
2019-04-27T16:12:09.649Z,21.70
2019-04-27T16:17:02.929Z,21.60
2019-04-27T16:22:02.155Z,21.50
2019-04-27T16:27:01.831Z,21.40
2019-04-27T16:32:02.786Z,21.30
2019-04-27T16:37:03.043Z,21.20
2019-04-27T16:42:03.005Z,21.10
2019-04-27T16:47:02.746Z,21.00
2019-04-27T16:52:02.783Z,21.00
2019-04-27T16:57:05.373Z,20.80
2019-04-27T17:02:04.371Z,20.70
2019-04-27T17:07:04.084Z,20.60
2019-04-27T17:12:03.997Z,20.50
2019-04-27T17:17:28.299Z,20.40
2019-04-27T17:22:28.713Z,20.40
2019-04-27T17:27:38.148Z,20.20
2019-04-27T17:32:53.124Z,20.20
2019-04-27T17:37:54.359Z,20.10
2019-04-27T17:42:54.335Z,20.00
2019-04-27T17:47:54.359Z,19.90
2019-04-27T17:52:56.643Z,19.80
2019-04-27T17:58:00.581Z,19.70
2019-04-27T18:02:57.976Z,19.60
2019-04-27T18:07:58.042Z,19.60
2019-04-27T18:12:58.364Z,19.50
2019-04-27T18:18:00.106Z,19.40
2019-04-27T18:23:10.666Z,19.30
2019-04-27T18:28:14.813Z,19.20
2019-04-27T18:33:13.495Z,19.10
2019-04-27T18:38:13.237Z,19.00
2019-04-27T18:43:13.132Z,18.90
2019-04-27T18:48:22.314Z,18.80
2019-04-27T18:53:28.878Z,18.80
2019-04-27T18:58:29.056Z,18.70
2019-04-27T19:03:31.119Z,18.60
2019-04-27T19:08:30.043Z,18.60
2019-04-27T19:13:29.684Z,18.50
2019-04-27T19:18:29.418Z,18.40
2019-04-27T19:23:29.859Z,18.40
2019-04-27T19:28:49.323Z,18.30
2019-04-27T19:33:49.044Z,18.20
2019-04-27T19:38:49.788Z,18.10
2019-04-27T19:43:49.502Z,18.10
2019-04-27T19:48:49.978Z,18.00
2019-04-27T19:53:50.987Z,18.00
2019-04-27T19:58:53.953Z,17.90
2019-04-27T20:04:17.762Z,17.80
2019-04-27T20:09:23.087Z,17.80
2019-04-27T20:14:23.127Z,17.70
2019-04-27T20:19:22.787Z,17.60
2019-04-27T20:24:23.390Z,17.60
2019-04-27T20:29:23.055Z,17.40
2019-04-27T20:34:22.942Z,17.40
2019-04-27T20:39:22.756Z,17.30
2019-04-27T20:44:23.450Z,17.30
2019-04-27T20:49:23.108Z,17.30
2019-04-27T20:54:23.238Z,17.20
2019-04-27T20:59:22.923Z,17.20
2019-04-27T21:04:26.911Z,17.10
2019-04-27T21:09:26.574Z,17.10
2019-04-27T21:14:26.238Z,17.00
2019-04-27T21:19:25.882Z,17.00
2019-04-27T21:24:25.534Z,16.90
2019-04-27T21:29:25.312Z,16.90
2019-04-27T21:34:25.678Z,16.80
2019-04-27T21:39:25.401Z,16.80
2019-04-27T21:44:25.080Z,16.70
2019-04-27T21:49:24.802Z,16.70
2019-04-27T21:54:26.122Z,16.60
2019-04-27T21:59:25.762Z,16.60
2019-04-27T22:04:25.560Z,16.50
2019-04-27T22:09:25.227Z,16.50
2019-04-27T22:14:25.802Z,16.40
2019-04-27T22:19:26.030Z,16.40
2019-04-27T22:24:30.442Z,16.30
2019-04-27T22:29:31.963Z,16.40
2019-04-27T22:34:31.502Z,16.40
2019-04-27T22:39:40.831Z,16.30
2019-04-27T22:44:46.672Z,16.30
2019-04-27T22:49:46.639Z,16.30
2019-04-27T22:54:46.422Z,16.30
2019-04-27T23:00:03.343Z,16.30
2019-04-27T23:05:04.208Z,16.20
2019-04-27T23:10:05.238Z,16.10
2019-04-27T23:15:07.746Z,16.10
2019-04-27T23:20:08.082Z,16.00
2019-04-27T23:25:07.934Z,16.00
2019-04-27T23:30:09.079Z,15.90
2019-04-27T23:35:08.830Z,15.90
2019-04-27T23:40:11.158Z,15.90
2019-04-27T23:45:12.611Z,15.80
2019-04-27T23:50:13.407Z,15.80
2019-04-27T23:55:13.184Z,15.80
